sensor_id;sensor_type;location;lat;lon;timestamp;P1;durP1;ratioP1;P2;durP2;ratioP2
76846;SDS011;65813;49.546;8.644;2022-12-26T05:19:15;4.85;;;2.28;;
76846;SDS011;65813;49.546;8.644;2022-12-26T05:23:35;4.45;;;2.38;;
76846;SDS011;65813;49.546;8.644;2022-12-26T05:27:54;4.53;;;2.47;;
76846;SDS011;65813;49.546;8.644;2022-12-26T05:32:12;5.63;;;3.00;;
76846;SDS011;65813;49.546;8.644;2022-12-26T05:36:13;5.57;;;2.40;;
76846;SDS011;65813;49.546;8.644;2022-12-26T05:40:16;5.10;;;2.60;;
76846;SDS011;65813;49.546;8.644;2022-12-26T05:44:16;5.20;;;2.50;;
76846;SDS011;65813;49.546;8.644;2022-12-26T05:48:16;5.13;;;2.33;;
76846;SDS011;65813;49.546;8.644;2022-12-26T05:52:17;4.77;;;2.60;;
76846;SDS011;65813;49.546;8.644;2022-12-26T05:56:17;4.00;;;1.90;;
76846;SDS011;65813;49.546;8.644;2022-12-26T06:00:18;3.67;;;2.10;;
76846;SDS011;65813;49.546;8.644;2022-12-26T06:04:19;4.72;;;2.63;;
76846;SDS011;65813;49.546;8.644;2022-12-26T06:08:19;3.67;;;1.90;;
76846;SDS011;65813;49.546;8.644;2022-12-26T06:12:19;3.90;;;2.40;;
76846;SDS011;65813;49.546;8.644;2022-12-26T06:16:20;5.60;;;2.73;;
76846;SDS011;65813;49.546;8.644;2022-12-26T06:20:20;3.25;;;1.55;;
76846;SDS011;65813;49.546;8.644;2022-12-26T06:24:20;3.50;;;2.00;;
76846;SDS011;65813;49.546;8.644;2022-12-26T06:28:21;4.63;;;2.10;;
76846;SDS011;65813;49.546;8.644;2022-12-26T06:32:22;4.10;;;2.25;;
76846;SDS011;65813;49.546;8.644;2022-12-26T06:36:23;4.60;;;2.50;;
76846;SDS011;65813;49.546;8.644;2022-12-26T06:40:25;5.28;;;2.13;;
76846;SDS011;65813;49.546;8.644;2022-12-26T06:44:25;6.00;;;2.70;;
76846;SDS011;65813;49.546;8.644;2022-12-26T06:48:26;4.10;;;2.40;;
76846;SDS011;65813;49.546;8.644;2022-12-26T06:52:27;4.63;;;2.22;;
76846;SDS011;65813;49.546;8.644;2022-12-26T06:56:27;4.53;;;2.50;;
76846;SDS011;65813;49.546;8.644;2022-12-26T07:00:28;4.85;;;3.20;;
76846;SDS011;65813;49.546;8.644;2022-12-26T07:04:29;5.93;;;2.93;;
76846;SDS011;65813;49.546;8.644;2022-12-26T07:08:29;4.90;;;2.30;;
76846;SDS011;65813;49.546;8.644;2022-12-26T07:12:29;5.33;;;2.40;;
76846;SDS011;65813;49.546;8.644;2022-12-26T07:16:33;4.93;;;2.22;;
76846;SDS011;65813;49.546;8.644;2022-12-26T07:20:36;7.25;;;2.70;;
76846;SDS011;65813;49.546;8.644;2022-12-26T07:24:36;5.20;;;2.50;;
76846;SDS011;65813;49.546;8.644;2022-12-26T07:28:37;6.67;;;3.10;;
76846;SDS011;65813;49.546;8.644;2022-12-26T07:32:37;6.73;;;2.30;;
76846;SDS011;65813;49.546;8.644;2022-12-26T07:36:38;7.87;;;3.40;;
76846;SDS011;65813;49.546;8.644;2022-12-26T07:40:38;6.93;;;3.28;;
76846;SDS011;65813;49.546;8.644;2022-12-26T07:48:42;5.68;;;2.50;;
76846;SDS011;65813;49.546;8.644;2022-12-26T07:52:42;6.28;;;2.88;;
76846;SDS011;65813;49.546;8.644;2022-12-26T07:56:42;6.70;;;3.40;;
76846;SDS011;65813;49.546;8.644;2022-12-26T08:00:43;6.28;;;3.20;;
76846;SDS011;65813;49.546;8.644;2022-12-26T08:04:43;7.70;;;2.77;;
76846;SDS011;65813;49.546;8.644;2022-12-26T08:08:44;8.53;;;3.40;;
76846;SDS011;65813;49.546;8.644;2022-12-26T08:12:45;7.63;;;3.15;;
76846;SDS011;65813;49.546;8.644;2022-12-26T08:16:45;6.57;;;2.60;;
76846;SDS011;65813;49.546;8.644;2022-12-26T08:20:46;6.97;;;3.00;;
76846;SDS011;65813;49.546;8.644;2022-12-26T08:24:46;5.60;;;2.90;;
76846;SDS011;65813;49.546;8.644;2022-12-26T08:28:47;6.17;;;2.80;;
76846;SDS011;65813;49.546;8.644;2022-12-26T08:32:49;7.85;;;3.40;;
76846;SDS011;65813;49.546;8.644;2022-12-26T08:36:50;5.70;;;2.55;;
76846;SDS011;65813;49.546;8.644;2022-12-26T08:40:54;7.10;;;3.30;;
76846;SDS011;65813;49.546;8.644;2022-12-26T08:44:55;5.93;;;3.50;;
76846;SDS011;65813;49.546;8.644;2022-12-26T08:48:55;7.63;;;3.80;;
76846;SDS011;65813;49.546;8.644;2022-12-26T08:52:56;9.83;;;4.53;;
76846;SDS011;65813;49.546;8.644;2022-12-26T08:56:56;7.53;;;3.67;;
76846;SDS011;65813;49.546;8.644;2022-12-26T09:01:04;11.93;;;5.27;;
76846;SDS011;65813;49.546;8.644;2022-12-26T09:05:12;8.18;;;4.22;;
76846;SDS011;65813;49.546;8.644;2022-12-26T09:09:12;7.23;;;4.27;;
76846;SDS011;65813;49.546;8.644;2022-12-26T09:13:15;11.50;;;4.68;;
76846;SDS011;65813;49.546;8.644;2022-12-26T09:17:18;6.10;;;3.25;;
76846;SDS011;65813;49.546;8.644;2022-12-26T09:21:18;9.97;;;4.47;;
76846;SDS011;65813;49.546;8.644;2022-12-26T09:25:20;7.20;;;3.23;;
76846;SDS011;65813;49.546;8.644;2022-12-26T09:29:24;4.60;;;2.67;;
76846;SDS011;65813;49.546;8.644;2022-12-26T09:33:24;8.77;;;3.40;;
76846;SDS011;65813;49.546;8.644;2022-12-26T09:37:24;7.37;;;3.47;;
76846;SDS011;65813;49.546;8.644;2022-12-26T09:45:43;6.65;;;3.30;;
76846;SDS011;65813;49.546;8.644;2022-12-26T09:49:52;5.70;;;2.97;;
76846;SDS011;65813;49.546;8.644;2022-12-26T09:53:53;7.13;;;3.58;;
76846;SDS011;65813;49.546;8.644;2022-12-26T09:57:54;10.63;;;3.55;;
76846;SDS011;65813;49.546;8.644;2022-12-26T10:01:59;6.50;;;3.65;;
76846;SDS011;65813;49.546;8.644;2022-12-26T10:06:08;5.10;;;3.20;;
76846;SDS011;65813;49.546;8.644;2022-12-26T10:18:36;7.68;;;3.20;;
76846;SDS011;65813;49.546;8.644;2022-12-26T10:26:49;5.07;;;2.27;;
76846;SDS011;65813;49.546;8.644;2022-12-26T10:30:55;6.40;;;2.80;;
76846;SDS011;65813;49.546;8.644;2022-12-26T10:34:59;5.93;;;3.10;;
76846;SDS011;65813;49.546;8.644;2022-12-26T10:39:27;5.43;;;2.30;;
76846;SDS011;65813;49.546;8.644;2022-12-26T10:43:50;5.63;;;2.33;;
76846;SDS011;65813;49.546;8.644;2022-12-26T10:47:51;4.60;;;2.80;;
76846;SDS011;65813;49.546;8.644;2022-12-26T10:51:54;6.45;;;3.33;;
76846;SDS011;65813;49.546;8.644;2022-12-26T10:55:58;4.35;;;2.10;;
76846;SDS011;65813;49.546;8.644;2022-12-26T10:59:59;5.55;;;2.92;;
76846;SDS011;65813;49.546;8.644;2022-12-26T11:04:01;4.60;;;2.38;;
76846;SDS011;65813;49.546;8.644;2022-12-26T11:08:05;4.38;;;2.10;;
76846;SDS011;65813;49.546;8.644;2022-12-26T11:12:25;5.28;;;2.58;;
76846;SDS011;65813;49.546;8.644;2022-12-26T11:16:35;3.65;;;2.22;;
76846;SDS011;65813;49.546;8.644;2022-12-26T11:20:39;5.75;;;2.95;;
76846;SDS011;65813;49.546;8.644;2022-12-26T11:24:39;4.70;;;2.50;;
76846;SDS011;65813;49.546;8.644;2022-12-26T11:28:39;5.30;;;2.80;;
76846;SDS011;65813;49.546;8.644;2022-12-26T11:32:40;6.45;;;2.85;;
76846;SDS011;65813;49.546;8.644;2022-12-26T11:36:44;8.88;;;3.63;;
76846;SDS011;65813;49.546;8.644;2022-12-26T11:40:47;7.40;;;3.80;;
76846;SDS011;65813;49.546;8.644;2022-12-26T11:45:10;4.30;;;2.50;;
76846;SDS011;65813;49.546;8.644;2022-12-26T11:57:35;4.18;;;2.30;;
76846;SDS011;65813;49.546;8.644;2022-12-26T12:01:36;5.27;;;2.97;;
76846;SDS011;65813;49.546;8.644;2022-12-26T12:05:53;6.00;;;2.80;;
76846;SDS011;65813;49.546;8.644;2022-12-26T12:28:36;5.65;;;2.30;;
76846;SDS011;65813;49.546;8.644;2022-12-26T12:41:33;4.45;;;2.47;;
76846;SDS011;65813;49.546;8.644;2022-12-26T12:45:43;4.20;;;2.30;;
76846;SDS011;65813;49.546;8.644;2022-12-26T13:02:24;5.65;;;2.95;;
76846;SDS011;65813;49.546;8.644;2022-12-26T13:06:28;6.20;;;3.15;;
76846;SDS011;65813;49.546;8.644;2022-12-26T13:10:36;4.10;;;2.10;;
76846;SDS011;65813;49.546;8.644;2022-12-26T13:14:45;4.53;;;2.45;;
76846;SDS011;65813;49.546;8.644;2022-12-26T13:18:58;3.88;;;2.25;;
76846;SDS011;65813;49.546;8.644;2022-12-26T13:23:10;4.45;;;2.13;;
76846;SDS011;65813;49.546;8.644;2022-12-26T13:31:38;4.65;;;2.22;;
76846;SDS011;65813;49.546;8.644;2022-12-26T13:35:51;5.18;;;2.83;;
76846;SDS011;65813;49.546;8.644;2022-12-26T13:39:54;6.18;;;2.83;;
76846;SDS011;65813;49.546;8.644;2022-12-26T13:43:58;4.28;;;2.13;;
76846;SDS011;65813;49.546;8.644;2022-12-26T13:48:45;3.92;;;2.28;;
76846;SDS011;65813;49.546;8.644;2022-12-26T13:52:33;3.90;;;1.80;;
76846;SDS011;65813;49.546;8.644;2022-12-26T14:00:44;3.67;;;2.08;;
76846;SDS011;65813;49.546;8.644;2022-12-26T14:09:11;4.95;;;2.20;;
76846;SDS011;65813;49.546;8.644;2022-12-26T14:22:51;4.10;;;1.95;;
76846;SDS011;65813;49.546;8.644;2022-12-26T14:27:16;4.72;;;2.60;;
76846;SDS011;65813;49.546;8.644;2022-12-26T14:31:34;4.25;;;2.22;;
76846;SDS011;65813;49.546;8.644;2022-12-26T14:40:27;4.60;;;2.42;;
76846;SDS011;65813;49.546;8.644;2022-12-26T14:48:38;4.27;;;1.97;;
76846;SDS011;65813;49.546;8.644;2022-12-26T14:52:41;4.50;;;1.98;;
76846;SDS011;65813;49.546;8.644;2022-12-26T14:56:43;6.38;;;1.80;;
76846;SDS011;65813;49.546;8.644;2022-12-26T15:00:44;4.30;;;1.95;;
76846;SDS011;65813;49.546;8.644;2022-12-26T15:04:47;10.65;;;4.28;;
76846;SDS011;65813;49.546;8.644;2022-12-26T15:22:26;6.28;;;2.50;;
76846;SDS011;65813;49.546;8.644;2022-12-26T15:44:02;5.65;;;3.03;;
76846;SDS011;65813;49.546;8.644;2022-12-26T15:48:50;5.57;;;2.63;;
76846;SDS011;65813;49.546;8.644;2022-12-26T16:01:49;4.80;;;1.98;;
76846;SDS011;65813;49.546;8.644;2022-12-26T16:05:57;9.38;;;3.65;;
76846;SDS011;65813;49.546;8.644;2022-12-26T16:14:31;4.63;;;2.33;;
76846;SDS011;65813;49.546;8.644;2022-12-26T16:18:33;5.63;;;2.35;;
76846;SDS011;65813;49.546;8.644;2022-12-26T16:22:37;5.30;;;2.20;;
76846;SDS011;65813;49.546;8.644;2022-12-26T16:26:45;4.03;;;1.92;;
76846;SDS011;65813;49.546;8.644;2022-12-26T16:30:46;4.22;;;1.95;;
76846;SDS011;65813;49.546;8.644;2022-12-26T16:34:46;5.65;;;3.38;;
76846;SDS011;65813;49.546;8.644;2022-12-26T16:38:48;3.90;;;1.63;;
76846;SDS011;65813;49.546;8.644;2022-12-26T16:42:54;4.55;;;2.05;;
76846;SDS011;65813;49.546;8.644;2022-12-26T16:47:00;4.18;;;2.00;;
76846;SDS011;65813;49.546;8.644;2022-12-26T16:51:04;4.88;;;2.38;;
76846;SDS011;65813;49.546;8.644;2022-12-26T16:55:54;9.50;;;4.65;;
76846;SDS011;65813;49.546;8.644;2022-12-26T16:59:38;5.18;;;2.35;;
76846;SDS011;65813;49.546;8.644;2022-12-26T17:04:01;3.92;;;1.70;;
76846;SDS011;65813;49.546;8.644;2022-12-26T17:08:04;4.47;;;1.52;;
76846;SDS011;65813;49.546;8.644;2022-12-26T17:12:06;3.50;;;1.58;;
76846;SDS011;65813;49.546;8.644;2022-12-26T17:16:16;2.88;;;1.48;;
76846;SDS011;65813;49.546;8.644;2022-12-26T17:24:28;8.90;;;4.32;;
76846;SDS011;65813;49.546;8.644;2022-12-26T17:28:29;4.28;;;1.67;;
76846;SDS011;65813;49.546;8.644;2022-12-26T17:32:33;4.10;;;1.70;;
76846;SDS011;65813;49.546;8.644;2022-12-26T17:36:40;3.00;;;1.50;;
76846;SDS011;65813;49.546;8.644;2022-12-26T17:40:41;5.38;;;1.50;;
76846;SDS011;65813;49.546;8.644;2022-12-26T17:44:44;1.77;;;0.90;;
76846;SDS011;65813;49.546;8.644;2022-12-26T17:48:45;5.40;;;1.92;;
76846;SDS011;65813;49.546;8.644;2022-12-26T17:52:45;3.63;;;1.80;;
76846;SDS011;65813;49.546;8.644;2022-12-26T17:56:46;4.60;;;1.80;;
76846;SDS011;65813;49.546;8.644;2022-12-26T18:00:46;4.90;;;2.53;;
76846;SDS011;65813;49.546;8.644;2022-12-26T18:04:47;7.45;;;3.20;;
76846;SDS011;65813;49.546;8.644;2022-12-26T18:08:47;9.73;;;4.85;;
76846;SDS011;65813;49.546;8.644;2022-12-26T18:12:48;12.90;;;5.33;;
76846;SDS011;65813;49.546;8.644;2022-12-26T18:16:50;6.43;;;2.38;;
76846;SDS011;65813;49.546;8.644;2022-12-26T18:20:51;2.65;;;1.40;;
76846;SDS011;65813;49.546;8.644;2022-12-26T18:24:51;3.58;;;1.20;;
76846;SDS011;65813;49.546;8.644;2022-12-26T18:28:52;4.60;;;1.60;;
76846;SDS011;65813;49.546;8.644;2022-12-26T18:32:53;3.95;;;1.85;;
76846;SDS011;65813;49.546;8.644;2022-12-26T18:36:53;2.97;;;1.73;;
76846;SDS011;65813;49.546;8.644;2022-12-26T18:40:54;3.43;;;1.30;;
76846;SDS011;65813;49.546;8.644;2022-12-26T18:44:56;2.67;;;1.13;;
76846;SDS011;65813;49.546;8.644;2022-12-26T18:48:57;4.05;;;1.52;;
76846;SDS011;65813;49.546;8.644;2022-12-26T18:52:58;3.05;;;1.30;;
76846;SDS011;65813;49.546;8.644;2022-12-26T18:56:58;3.95;;;1.67;;
76846;SDS011;65813;49.546;8.644;2022-12-26T19:00:59;3.10;;;1.70;;
76846;SDS011;65813;49.546;8.644;2022-12-26T19:05:02;3.58;;;1.45;;
76846;SDS011;65813;49.546;8.644;2022-12-26T19:09:02;3.53;;;1.40;;
76846;SDS011;65813;49.546;8.644;2022-12-26T19:13:03;2.92;;;1.60;;
76846;SDS011;65813;49.546;8.644;2022-12-26T19:17:04;3.70;;;1.80;;
76846;SDS011;65813;49.546;8.644;2022-12-26T19:21:09;3.90;;;1.65;;
76846;SDS011;65813;49.546;8.644;2022-12-26T19:25:14;3.85;;;1.90;;
76846;SDS011;65813;49.546;8.644;2022-12-26T19:29:15;4.55;;;2.40;;
76846;SDS011;65813;49.546;8.644;2022-12-26T19:33:15;3.47;;;1.70;;
76846;SDS011;65813;49.546;8.644;2022-12-26T19:37:16;2.57;;;1.00;;
76846;SDS011;65813;49.546;8.644;2022-12-26T19:41:16;3.03;;;1.20;;
76846;SDS011;65813;49.546;8.644;2022-12-26T19:45:16;3.40;;;1.90;;
76846;SDS011;65813;49.546;8.644;2022-12-26T19:49:17;2.88;;;1.60;;
76846;SDS011;65813;49.546;8.644;2022-12-26T19:53:17;2.85;;;1.20;;
76846;SDS011;65813;49.546;8.644;2022-12-26T19:57:18;2.58;;;1.27;;
76846;SDS011;65813;49.546;8.644;2022-12-26T20:01:19;2.55;;;1.10;;
76846;SDS011;65813;49.546;8.644;2022-12-26T20:05:21;3.17;;;1.73;;
76846;SDS011;65813;49.546;8.644;2022-12-26T20:09:22;2.57;;;1.20;;
76846;SDS011;65813;49.546;8.644;2022-12-26T20:13:22;2.67;;;1.27;;
76846;SDS011;65813;49.546;8.644;2022-12-26T20:17:22;2.57;;;1.13;;
76846;SDS011;65813;49.546;8.644;2022-12-26T20:21:23;3.03;;;1.13;;
76846;SDS011;65813;49.546;8.644;2022-12-26T20:25:23;3.67;;;1.42;;
76846;SDS011;65813;49.546;8.644;2022-12-26T20:29:24;3.43;;;1.10;;
76846;SDS011;65813;49.546;8.644;2022-12-26T20:33:24;3.80;;;1.33;;
76846;SDS011;65813;49.546;8.644;2022-12-26T20:37:25;2.50;;;1.30;;
76846;SDS011;65813;49.546;8.644;2022-12-26T20:41:26;2.20;;;1.13;;
76846;SDS011;65813;49.546;8.644;2022-12-26T20:45:27;2.58;;;0.90;;
76846;SDS011;65813;49.546;8.644;2022-12-26T20:49:28;1.50;;;1.00;;
76846;SDS011;65813;49.546;8.644;2022-12-26T20:53:28;2.63;;;0.90;;
76846;SDS011;65813;49.546;8.644;2022-12-26T20:57:28;2.43;;;1.00;;
76846;SDS011;65813;49.546;8.644;2022-12-26T21:01:29;1.97;;;0.87;;
76846;SDS011;65813;49.546;8.644;2022-12-26T21:05:29;3.72;;;1.20;;
76846;SDS011;65813;49.546;8.644;2022-12-26T21:09:30;2.03;;;1.00;;
76846;SDS011;65813;49.546;8.644;2022-12-26T21:13:30;2.92;;;1.23;;
76846;SDS011;65813;49.546;8.644;2022-12-26T21:17:31;3.05;;;1.10;;
76846;SDS011;65813;49.546;8.644;2022-12-26T21:21:32;2.10;;;0.70;;
76846;SDS011;65813;49.546;8.644;2022-12-26T21:25:34;1.95;;;1.10;;
76846;SDS011;65813;49.546;8.644;2022-12-26T21:29:35;1.05;;;0.93;;
76846;SDS011;65813;49.546;8.644;2022-12-26T21:33:37;3.33;;;1.17;;
76846;SDS011;65813;49.546;8.644;2022-12-26T21:37:38;2.08;;;1.08;;
76846;SDS011;65813;49.546;8.644;2022-12-26T21:41:47;2.35;;;1.00;;
76846;SDS011;65813;49.546;8.644;2022-12-26T21:45:48;3.20;;;0.93;;
76846;SDS011;65813;49.546;8.644;2022-12-26T21:49:48;3.73;;;1.30;;
76846;SDS011;65813;49.546;8.644;2022-12-26T21:53:48;3.27;;;1.83;;
76846;SDS011;65813;49.546;8.644;2022-12-26T21:57:49;1.95;;;1.10;;
76846;SDS011;65813;49.546;8.644;2022-12-26T22:01:49;4.40;;;1.20;;
76846;SDS011;65813;49.546;8.644;2022-12-26T22:05:49;2.23;;;0.90;;
76846;SDS011;65813;49.546;8.644;2022-12-26T22:09:50;3.07;;;1.40;;
76846;SDS011;65813;49.546;8.644;2022-12-26T22:13:51;4.72;;;1.33;;
